Time;durP1;ratioP1;P1;durP2;ratioP2;P2;SDS_P1;SDS_P2;PMS_P1;PMS_P2;Temp;Humidity;BMP_temperature;BMP_pressure;BME280_temperature;BME280_humidity;BME280_pressure;Samples;Min_cycle;Max_cycle;Signal;HPM_P1;HPM_P2
2022/03/04 00:02:12;;;;;;;5.57;5.07;;;16.70;44.00;17.60;101119.00;;;;5033665;28;20201;-46
2022/03/04 00:04:38;;;;;;;5.07;4.67;;;16.60;44.00;17.60;101115.00;;;;5035867;28;20195;-45
2022/03/04 00:07:06;;;;;;;5.17;4.67;;;16.60;44.10;17.60;101116.00;;;;5031948;28;20167;-45
2022/03/04 00:09:32;;;;;;;5.10;4.60;;;16.60;44.20;17.50;101115.00;;;;5036533;28;20164;-46
2022/03/04 00:11:58;;;;;;;5.10;4.53;;;16.60;44.20;17.50;101125.00;;;;5031407;28;20664;-45
2022/03/04 00:14:27;;;;;;;5.00;4.50;;;16.50;44.20;17.50;101116.00;;;;5030378;28;20195;-46
2022/03/04 00:16:53;;;;;;;5.53;4.57;;;16.50;44.30;17.50;101107.00;;;;5032074;28;20561;-46
2022/03/04 00:19:18;;;;;;;5.30;4.20;;;16.50;44.30;17.50;101109.00;;;;5032322;28;20209;-44
2022/03/04 00:21:48;;;;;;;5.80;4.50;;;16.50;44.40;17.50;101121.00;;;;5031969;28;20703;-45
2022/03/04 00:24:15;;;;;;;4.97;4.40;;;16.40;44.30;17.40;101123.00;;;;5032501;28;20191;-46
2022/03/04 00:26:41;;;;;;;4.90;4.40;;;16.40;44.40;17.40;101134.00;;;;5030512;28;20890;-44
2022/03/04 00:29:07;;;;;;;4.50;4.10;;;16.40;44.40;17.40;101132.00;;;;5031225;28;20170;-44
2022/03/04 00:31:33;;;;;;;4.90;4.27;;;16.40;44.40;17.40;101137.00;;;;5030169;28;20220;-44
2022/03/04 00:33:59;;;;;;;4.70;4.27;;;16.40;44.50;17.40;101128.00;;;;5029341;28;20761;-44
2022/03/04 00:36:26;;;;;;;4.20;3.90;;;16.40;44.60;17.30;101136.00;;;;5031628;28;20190;-44
2022/03/04 00:38:53;;;;;;;4.43;4.03;;;16.30;44.50;17.30;101137.00;;;;5031652;28;20716;-45
2022/03/04 00:41:19;;;;;;;4.40;4.00;;;16.30;44.50;17.30;101138.00;;;;5031320;28;20561;-46
2022/03/04 00:43:45;;;;;;;4.50;4.10;;;16.30;44.60;17.30;101140.00;;;;5031005;28;20222;-46
2022/03/04 00:46:11;;;;;;;5.07;4.23;;;16.30;44.60;17.30;101140.00;;;;5031704;28;20169;-45
2022/03/04 00:48:37;;;;;;;4.37;4.03;;;16.30;44.60;17.30;101139.00;;;;5031598;28;20178;-45
2022/03/04 00:51:03;;;;;;;4.27;3.90;;;16.20;44.60;17.30;101143.00;;;;5031970;28;20253;-44
2022/03/04 00:53:30;;;;;;;4.50;4.10;;;16.20;44.60;17.20;101142.00;;;;5031514;28;20210;-46
2022/03/04 00:55:59;;;;;;;4.43;4.00;;;16.20;44.70;17.20;101141.00;;;;5030726;28;20775;-46
2022/03/04 00:58:25;;;;;;;4.37;3.97;;;16.10;44.70;17.20;101145.00;;;;5030703;28;20186;-46
2022/03/04 01:00:50;;;;;;;5.57;3.87;;;16.10;44.60;17.20;101150.00;;;;5033108;28;20246;-46
2022/03/04 01:03:16;;;;;;;4.10;3.80;;;16.10;44.70;17.10;101157.00;;;;5032583;28;20225;-46
2022/03/04 01:05:42;;;;;;;4.07;3.77;;;16.10;44.80;17.10;101147.00;;;;5033186;28;20179;-45
2022/03/04 01:08:08;;;;;;;4.30;4.00;;;16.00;44.70;17.10;101139.00;;;;5032801;28;20174;-44
2022/03/04 01:10:34;;;;;;;4.23;3.93;;;16.00;44.70;17.10;101142.00;;;;5032933;28;20171;-45
2022/03/04 01:12:59;;;;;;;4.30;3.90;;;16.00;44.80;17.10;101143.00;;;;5030755;28;20274;-45
2022/03/04 01:15:25;;;;;;;3.93;3.63;;;16.00;44.70;17.10;101066.00;;;;5030898;28;20189;-46
2022/03/04 01:17:51;;;;;;;4.10;3.70;;;16.00;44.70;17.00;101144.00;;;;5030238;28;20798;-45
2022/03/04 01:20:16;;;;;;;4.40;4.00;;;16.00;44.70;17.00;101142.00;;;;5030871;28;20179;-45
2022/03/04 01:22:42;;;;;;;4.17;3.87;;;15.90;44.60;17.00;101138.00;;;;5030669;28;20381;-45
2022/03/04 01:25:08;;;;;;;4.30;4.00;;;15.90;44.70;17.00;101145.00;;;;5030848;28;20659;-45
2022/03/04 01:27:34;;;;;;;4.03;3.73;;;15.90;44.60;17.00;101141.00;;;;5033330;28;20175;-46
2022/03/04 01:30:00;;;;;;;4.00;3.70;;;15.90;44.60;16.90;101140.00;;;;5032618;28;20174;-46
2022/03/04 01:32:25;;;;;;;3.80;3.50;;;15.90;44.70;16.90;101131.00;;;;5029985;28;20179;-45
2022/03/04 01:34:51;;;;;;;4.00;3.70;;;15.90;44.80;16.90;101135.00;;;;5029638;28;20206;-43
2022/03/04 01:37:17;;;;;;;3.83;3.53;;;15.90;44.80;16.90;101136.00;;;;5030022;28;20210;-45
2022/03/04 01:39:42;;;;;;;4.57;4.17;;;15.80;44.80;16.80;101127.00;;;;5030388;28;20190;-46
2022/03/04 01:42:08;;;;;;;4.00;3.70;;;15.80;44.70;16.90;101137.00;;;;5030105;28;20603;-46
2022/03/04 01:44:34;;;;;;;4.07;3.67;;;15.80;44.60;16.80;101136.00;;;;5029420;28;20551;-45
2022/03/04 01:47:00;;;;;;;4.20;3.90;;;15.80;44.70;16.80;101139.00;;;;5032131;28;20155;-46
2022/03/04 01:49:26;;;;;;;4.40;4.00;;;15.80;44.80;16.80;101142.00;;;;5033689;28;20217;-45
2022/03/04 01:51:51;;;;;;;4.50;4.10;;;15.70;44.80;16.80;101133.00;;;;5033737;28;20175;-45
2022/03/04 01:54:17;;;;;;;4.37;3.97;;;15.70;44.80;16.80;101139.00;;;;5032348;28;20396;-45
2022/03/04 01:56:43;;;;;;;4.00;3.70;;;15.70;44.60;16.70;101138.00;;;;5033824;28;20663;-45
2022/03/04 01:59:08;;;;;;;3.97;3.67;;;15.70;44.90;16.70;101142.00;;;;5034090;28;20163;-46
2022/03/04 02:01:35;;;;;;;4.27;3.87;;;15.70;44.80;16.70;101137.00;;;;5032930;28;20273;-45
2022/03/04 02:04:00;;;;;;;4.50;4.10;;;15.70;44.80;16.70;101147.00;;;;5033237;28;20197;-45
2022/03/04 02:06:26;;;;;;;4.17;3.77;;;15.60;44.70;16.60;101140.00;;;;5032911;28;20438;-45
2022/03/04 02:08:52;;;;;;;4.77;3.93;;;15.60;44.60;16.60;101139.00;;;;5032629;28;20171;-45
2022/03/04 02:11:17;;;;;;;4.00;3.70;;;15.60;44.80;16.60;101142.00;;;;5032943;28;20228;-45
2022/03/04 02:13:43;;;;;;;4.10;3.80;;;15.60;44.70;16.60;101143.00;;;;5032146;28;20505;-45
2022/03/04 02:16:29;;;;;;;4.30;3.90;;;15.60;44.70;16.60;101136.00;;;;5032819;28;20190;-45
2022/03/04 02:18:54;;;;;;;4.07;3.77;;;15.60;45.40;16.60;101144.00;;;;5031939;28;20529;-46
2022/03/04 02:21:23;;;;;;;4.00;3.70;;;15.60;44.90;16.50;101142.00;;;;5031141;28;20191;-46
2022/03/04 02:23:48;;;;;;;4.00;3.70;;;15.50;44.80;16.50;101142.00;;;;5031635;28;20346;-45
2022/03/04 02:26:14;;;;;;;4.10;3.80;;;15.50;44.80;16.50;101144.00;;;;5033300;28;20163;-45
2022/03/04 02:28:40;;;;;;;4.20;3.80;;;15.50;44.80;16.50;101154.00;;;;5032962;28;20179;-45
2022/03/04 02:31:06;;;;;;;3.70;3.40;;;15.50;44.70;16.50;101149.00;;;;5032667;28;20528;-45
2022/03/04 02:33:31;;;;;;;4.13;3.83;;;15.50;44.80;16.50;101144.00;;;;5032668;28;20202;-45
2022/03/04 02:35:57;;;;;;;3.77;3.47;;;15.40;44.60;16.50;101131.00;;;;5032692;28;20194;-45
2022/03/04 02:38:23;;;;;;;4.00;3.70;;;15.50;44.70;16.50;101137.00;;;;5033607;28;20648;-45
2022/03/04 02:40:48;;;;;;;3.80;3.50;;;15.40;44.70;16.50;101139.00;;;;5033925;28;20210;-45
2022/03/04 02:43:14;;;;;;;3.97;3.67;;;15.40;44.70;16.40;101139.00;;;;5034185;28;20251;-45
2022/03/04 02:45:40;;;;;;;4.00;3.70;;;15.40;44.70;16.40;101124.00;;;;5033161;28;20179;-45
2022/03/04 02:48:05;;;;;;;4.13;3.83;;;15.30;44.70;16.40;101122.00;;;;5033528;28;20663;-45
2022/03/04 02:50:31;;;;;;;3.90;3.60;;;15.30;44.80;16.40;101129.00;;;;5032851;28;20220;-45
2022/03/04 02:52:57;;;;;;;4.43;4.03;;;15.30;44.70;16.20;101128.00;;;;5032712;28;20199;-45
2022/03/04 02:55:23;;;;;;;3.90;3.60;;;15.30;44.60;16.30;101123.00;;;;5033155;28;20670;-44
2022/03/04 02:57:49;;;;;;;3.60;3.30;;;15.30;44.70;16.30;101127.00;;;;5031690;28;20605;-43
2022/03/04 03:00:15;;;;;;;3.80;3.50;;;15.40;44.70;16.30;101130.00;;;;5032415;28;20171;-45
2022/03/04 03:02:41;;;;;;;4.00;3.67;;;15.30;44.70;16.30;101128.00;;;;5033318;28;20199;-45
2022/03/04 03:05:08;;;;;;;3.90;3.60;;;15.30;44.70;16.30;101127.00;;;;5037132;28;20185;-46
2022/03/04 03:07:34;;;;;;;4.13;3.83;;;15.30;44.70;16.30;101127.00;;;;5035724;28;20572;-45
2022/03/04 03:10:00;;;;;;;3.83;3.53;;;15.30;44.70;16.30;101125.00;;;;5032856;28;20170;-45
2022/03/04 03:12:26;;;;;;;3.90;3.60;;;15.30;44.70;16.30;101129.00;;;;5032780;28;20178;-44
2022/03/04 03:14:51;;;;;;;3.90;3.60;;;15.20;44.60;16.20;101124.00;;;;5032984;28;20199;-45
2022/03/04 03:17:17;;;;;;;3.90;3.60;;;15.20;44.60;16.20;101122.00;;;;5032470;28;20167;-44
2022/03/04 03:19:43;;;;;;;4.10;3.80;;;15.20;44.60;16.20;101130.00;;;;5032407;28;20175;-45
2022/03/04 03:22:09;;;;;;;3.70;3.40;;;15.10;44.60;16.20;101122.00;;;;5033538;28;20199;-45
2022/03/04 03:24:34;;;;;;;3.80;3.50;;;15.20;44.70;16.20;101125.00;;;;5032313;28;20206;-44
2022/03/04 03:27:00;;;;;;;4.00;3.70;;;15.10;44.60;16.20;101118.00;;;;5031831;28;20676;-44
2022/03/04 03:29:26;;;;;;;3.90;3.60;;;15.10;44.60;16.20;101120.00;;;;5031827;28;20566;-44
2022/03/04 03:31:51;;;;;;;4.03;3.67;;;15.10;44.60;16.20;101123.00;;;;5031839;28;20175;-45
2022/03/04 03:34:17;;;;;;;3.70;3.40;;;15.10;44.60;16.10;101119.00;;;;5032040;28;20214;-44
2022/03/04 03:36:43;;;;;;;3.90;3.60;;;15.10;45.30;16.10;101128.00;;;;5031463;28;20175;-44
2022/03/04 03:39:08;;;;;;;4.10;3.80;;;15.10;44.60;16.10;101046.00;;;;5032442;28;20171;-45
2022/03/04 03:41:35;;;;;;;3.90;3.60;;;15.10;44.60;16.10;101134.00;;;;5032119;28;20559;-44
2022/03/04 03:44:01;;;;;;;4.07;3.77;;;15.00;44.60;16.10;101135.00;;;;5031668;28;20189;-44
2022/03/04 03:46:26;;;;;;;4.03;3.73;;;15.00;44.60;16.10;101135.00;;;;5031854;28;20585;-42
2022/03/04 03:48:52;;;;;;;3.80;3.50;;;15.00;44.60;16.10;101135.00;;;;5031554;28;20167;-46
2022/03/04 03:51:18;;;;;;;3.90;3.60;;;15.00;44.60;16.00;101131.00;;;;5031040;28;20678;-43
2022/03/04 03:53:44;;;;;;;3.60;3.30;;;15.00;44.60;16.00;101135.00;;;;5030938;28;20212;-44
2022/03/04 03:56:09;;;;;;;4.23;3.93;;;15.00;44.60;16.00;101134.00;;;;5031137;28;20186;-45
2022/03/04 03:58:35;;;;;;;3.90;3.60;;;15.00;44.50;16.00;101136.00;;;;5030563;28;20652;-44
2022/03/04 04:01:01;;;;;;;4.07;3.77;;;14.90;44.40;16.00;101139.00;;;;5030487;28;20186;-45
2022/03/04 04:03:26;;;;;;;4.00;3.70;;;14.90;44.60;16.00;101132.00;;;;5030212;28;20197;-45
2022/03/04 04:05:52;;;;;;;3.80;3.50;;;14.90;45.20;16.00;101135.00;;;;5030582;28;20544;-45
2022/03/04 04:08:18;;;;;;;3.80;3.50;;;14.80;44.40;16.00;101132.00;;;;5030001;28;20262;-45
2022/03/04 04:10:43;;;;;;;3.93;3.53;;;14.90;44.60;16.00;101133.00;;;;5030603;28;20179;-44
2022/03/04 04:13:09;;;;;;;3.97;3.67;;;14.80;44.50;16.00;101136.00;;;;5030595;28;20199;-43
2022/03/04 04:15:35;;;;;;;3.83;3.53;;;14.80;44.40;16.00;101139.00;;;;5032278;28;20171;-44
2022/03/04 04:18:00;;;;;;;3.90;3.60;;;14.80;44.50;15.90;101137.00;;;;5032465;28;20179;-44
2022/03/04 04:20:26;;;;;;;3.60;3.30;;;14.80;44.40;15.90;101143.00;;;;5030444;28;20179;-45
2022/03/04 04:22:52;;;;;;;3.70;3.40;;;14.80;44.50;15.80;101142.00;;;;5031034;28;20214;-44
2022/03/04 04:25:17;;;;;;;4.17;3.87;;;14.80;44.50;15.80;101140.00;;;;5033172;28;20179;-43
2022/03/04 04:27:43;;;;;;;3.67;3.37;;;14.70;44.40;15.80;101146.00;;;;5031265;28;20658;-44
2022/03/04 04:30:10;;;;;;;4.20;3.80;;;14.80;44.50;15.80;101141.00;;;;5031579;28;20175;-44
2022/03/04 04:32:35;;;;;;;4.00;3.70;;;14.70;44.50;15.80;101144.00;;;;5031167;28;20236;-44
2022/03/04 04:35:01;;;;;;;3.90;3.60;;;14.70;44.40;15.70;101149.00;;;;5030881;28;20199;-42
2022/03/04 04:37:27;;;;;;;6.07;3.60;;;14.70;44.80;15.70;101147.00;;;;5030358;28;20174;-45
2022/03/04 04:39:53;;;;;;;4.87;3.40;;;14.60;45.00;15.60;101158.00;;;;5030298;28;20190;-44
2022/03/04 04:42:18;;;;;;;3.80;3.50;;;14.70;45.00;15.60;101154.00;;;;5031147;28;20198;-44
2022/03/04 04:44:44;;;;;;;3.87;3.57;;;14.80;45.00;15.70;101159.00;;;;5030849;28;20757;-44
2022/03/04 04:47:12;;;;;;;3.77;3.47;;;14.90;45.60;15.70;101153.00;;;;5031433;28;20233;-45
2022/03/04 04:49:38;;;;;;;5.03;3.83;;;15.10;46.10;15.80;101148.00;;;;5030020;28;20246;-44
2022/03/04 04:52:07;;;;;;;4.83;3.73;;;15.10;45.90;15.90;101155.00;;;;5030433;28;20265;-44
2022/03/04 04:54:33;;;;;;;4.57;3.60;;;15.20;45.80;15.90;101150.00;;;;5029872;28;20302;-44
2022/03/04 04:56:59;;;;;;;4.20;3.43;;;15.30;45.80;16.00;101157.00;;;;5029863;28;20187;-44
2022/03/04 04:59:24;;;;;;;4.57;3.40;;;15.30;45.70;16.00;101154.00;;;;5030445;28;20248;-44
2022/03/04 05:01:50;;;;;;;4.17;3.50;;;15.30;45.50;16.00;101145.00;;;;5029412;28;20211;-46
2022/03/04 05:04:16;;;;;;;4.00;3.70;;;15.40;45.50;16.00;101154.00;;;;5028746;28;20221;-46
2022/03/04 05:06:42;;;;;;;5.00;3.63;;;15.40;45.50;16.10;101161.00;;;;5029950;28;20179;-43
2022/03/04 05:09:07;;;;;;;3.97;3.67;;;15.40;45.40;16.10;101160.00;;;;5030573;28;20175;-45
2022/03/04 05:11:33;;;;;;;4.13;3.50;;;15.40;45.30;16.10;101162.00;;;;5029731;28;20253;-44
2022/03/04 05:13:59;;;;;;;3.70;3.40;;;15.40;45.20;16.10;101164.00;;;;5029725;28;20210;-45
2022/03/04 05:16:25;;;;;;;3.93;3.53;;;15.50;45.50;16.10;101173.00;;;;5030363;28;20182;-45
2022/03/04 05:18:50;;;;;;;5.33;3.47;;;15.50;45.20;16.20;101164.00;;;;5030615;28;20643;-45
2022/03/04 05:21:16;;;;;;;3.90;3.50;;;15.50;45.40;16.20;101170.00;;;;5034372;28;20708;-45
2022/03/04 05:24:00;;;;;;;3.90;3.60;;;15.50;45.70;16.20;101158.00;;;;5034355;28;20203;-45
2022/03/04 05:26:36;;;;;;;4.27;3.40;;;15.50;45.80;16.20;101178.00;;;;5034593;28;20158;-43
2022/03/04 05:29:05;;;;;;;3.87;3.27;;;15.50;45.80;16.20;101168.00;;;;5034515;28;20171;-45
2022/03/04 05:31:31;;;;;;;5.23;3.60;;;15.50;45.90;16.20;101172.00;;;;5033097;28;20198;-44
2022/03/04 05:33:56;;;;;;;5.40;3.50;;;15.50;45.90;16.30;101184.00;;;;5032981;28;20198;-45
2022/03/04 05:36:22;;;;;;;4.43;3.53;;;15.50;46.00;16.30;101174.00;;;;5033471;28;20586;-43
2022/03/04 05:38:48;;;;;;;3.70;3.40;;;15.60;46.00;16.30;101172.00;;;;5033060;28;20178;-43
2022/03/04 05:41:15;;;;;;;5.17;3.53;;;15.60;46.00;16.30;101174.00;;;;5034346;28;20210;-45
2022/03/04 05:43:41;;;;;;;6.60;3.60;;;15.60;45.90;16.30;101171.00;;;;5028026;28;20199;-44
2022/03/04 05:46:07;;;;;;;11.03;3.80;;;15.60;46.00;16.30;101183.00;;;;5023604;28;20194;-43
2022/03/04 05:48:33;;;;;;;7.03;3.53;;;15.60;45.80;16.30;101190.00;;;;5032363;28;20539;-44
2022/03/04 05:50:59;;;;;;;3.97;3.60;;;15.60;45.70;16.30;101198.00;;;;5031870;28;20175;-44
2022/03/04 05:53:24;;;;;;;4.63;3.43;;;15.60;45.70;16.30;101190.00;;;;5032133;28;20202;-44
2022/03/04 05:55:51;;;;;;;5.60;3.33;;;15.60;45.60;16.30;101199.00;;;;5032185;28;20175;-46
2022/03/04 05:58:16;;;;;;;5.03;3.33;;;15.70;45.60;16.30;101206.00;;;;5032295;28;20245;-45
2022/03/04 06:00:42;;;;;;;4.10;3.10;;;15.70;45.60;16.40;101211.00;;;;5031985;28;20183;-45
2022/03/04 06:03:08;;;;;;;4.90;3.43;;;15.60;45.50;16.40;101207.00;;;;5030069;28;20286;-45
2022/03/04 06:05:34;;;;;;;4.97;3.30;;;15.70;45.50;16.40;101206.00;;;;5031812;28;20167;-45
2022/03/04 06:08:00;;;;;;;5.87;3.63;;;15.70;45.50;16.40;101209.00;;;;5031933;28;20183;-45
2022/03/04 06:10:26;;;;;;;4.27;3.60;;;15.70;45.50;16.30;101207.00;;;;5032111;28;20199;-45
2022/03/04 06:12:52;;;;;;;3.90;3.60;;;15.70;45.40;16.30;101217.00;;;;5031500;28;20187;-45
2022/03/04 06:15:17;;;;;;;3.97;3.60;;;15.70;45.40;16.30;101217.00;;;;5033044;28;20178;-44
2022/03/04 06:17:47;;;;;;;3.80;3.40;;;15.70;45.40;16.30;101220.00;;;;5031082;28;20616;-45
2022/03/04 06:20:13;;;;;;;3.90;3.50;;;15.70;45.40;16.30;101225.00;;;;5031361;28;20185;-42
2022/03/04 06:22:39;;;;;;;3.90;3.60;;;15.70;45.40;16.30;101217.00;;;;5031562;28;20207;-45
2022/03/04 06:25:05;;;;;;;3.50;3.20;;;15.70;45.40;16.30;101211.00;;;;5031121;28;20799;-46
2022/03/04 06:27:31;;;;;;;3.77;3.30;;;15.70;45.30;16.30;101218.00;;;;5031985;28;20650;-46
2022/03/04 06:29:56;;;;;;;3.70;3.40;;;15.70;45.40;16.30;101214.00;;;;5035150;28;20179;-45
2022/03/04 06:32:22;;;;;;;3.80;3.50;;;15.80;45.40;16.30;101223.00;;;;5032553;28;20190;-45
2022/03/04 06:34:48;;;;;;;3.60;3.30;;;15.70;45.40;16.30;101218.00;;;;5031211;28;20226;-45
2022/03/04 06:37:14;;;;;;;3.57;3.27;;;15.70;45.40;16.30;101220.00;;;;5031646;28;20226;-45
2022/03/04 06:39:40;;;;;;;3.80;3.50;;;15.70;45.40;16.30;101234.00;;;;5031236;28;20175;-45
2022/03/04 06:42:05;;;;;;;3.57;3.27;;;15.70;45.40;16.40;101237.00;;;;5029687;28;20272;-46
2022/03/04 06:44:31;;;;;;;3.80;3.47;;;15.70;45.40;16.40;101228.00;;;;5030201;28;20662;-46
2022/03/04 06:46:57;;;;;;;3.60;3.30;;;15.70;45.40;16.40;101250.00;;;;5029057;28;20186;-44
2022/03/04 06:49:23;;;;;;;3.67;3.37;;;15.70;45.40;16.40;101254.00;;;;5029368;28;20171;-45
2022/03/04 06:51:48;;;;;;;3.63;3.33;;;15.70;45.30;16.40;101247.00;;;;5029637;28;20557;-45
2022/03/04 06:54:14;;;;;;;3.50;3.20;;;15.80;45.50;16.40;101259.00;;;;5032857;28;20202;-44
2022/03/04 06:56:40;;;;;;;4.63;3.10;;;15.70;45.40;16.40;101257.00;;;;5033869;28;20218;-43
2022/03/04 06:59:06;;;;;;;3.70;3.40;;;15.70;45.40;16.40;101256.00;;;;5031309;28;20179;-44
2022/03/04 07:01:32;;;;;;;3.60;3.30;;;15.80;45.50;16.40;101260.00;;;;5031770;28;20207;-45
2022/03/04 07:03:57;;;;;;;3.97;3.67;;;15.80;45.50;16.40;101264.00;;;;5030244;28;20625;-45
2022/03/04 07:06:23;;;;;;;3.47;3.17;;;15.80;45.50;16.40;101267.00;;;;5028648;28;20182;-44
2022/03/04 07:08:49;;;;;;;3.70;3.40;;;15.80;45.60;16.40;101268.00;;;;5030891;28;20194;-45
2022/03/04 07:11:14;;;;;;;3.90;3.60;;;15.80;45.50;16.40;101280.00;;;;5030934;28;20185;-44
2022/03/04 07:13:40;;;;;;;3.40;3.10;;;15.80;45.50;16.40;101264.00;;;;5030400;28;20582;-44
2022/03/04 07:16:06;;;;;;;3.43;3.13;;;15.80;45.50;16.40;101272.00;;;;5030609;28;20249;-43
2022/03/04 07:18:31;;;;;;;3.90;3.60;;;15.80;45.60;16.40;101282.00;;;;5030741;28;20232;-43
2022/03/04 07:21:00;;;;;;;3.60;3.30;;;15.80;45.50;16.40;101275.00;;;;5030313;28;20549;-44
2022/03/04 07:23:26;;;;;;;3.93;3.30;;;15.80;45.50;16.40;101290.00;;;;5034353;28;20206;-44
2022/03/04 07:25:51;;;;;;;3.70;3.40;;;15.80;45.60;16.40;101289.00;;;;5037277;28;20570;-44
2022/03/04 07:28:17;;;;;;;3.80;3.50;;;15.80;45.60;16.40;101285.00;;;;5033657;28;20167;-45
2022/03/04 07:30:43;;;;;;;4.00;3.33;;;15.80;45.70;16.40;101289.00;;;;5029260;28;20155;-44
2022/03/04 07:33:09;;;;;;;3.67;3.33;;;15.90;45.90;16.40;101287.00;;;;5021180;28;20195;-42
2022/03/04 07:35:36;;;;;;;3.93;3.57;;;15.90;46.10;16.40;101282.00;;;;5015339;28;20222;-44
2022/03/04 07:38:02;;;;;;;5.80;3.30;;;15.90;46.00;16.50;101275.00;;;;5032087;28;20792;-44
2022/03/04 07:40:28;;;;;;;3.80;3.40;;;15.90;46.00;16.50;101288.00;;;;5030924;28;20577;-45
2022/03/04 07:42:53;;;;;;;3.90;3.50;;;15.90;46.00;16.50;101290.00;;;;5029329;28;20190;-45
2022/03/04 07:45:19;;;;;;;3.93;3.63;;;15.90;46.20;16.50;101289.00;;;;5024208;28;20261;-44
2022/03/04 07:47:45;;;;;;;3.80;3.50;;;15.90;46.20;16.50;101290.00;;;;5017236;28;20636;-46
2022/03/04 07:50:13;;;;;;;3.60;3.30;;;15.90;46.20;16.50;101292.00;;;;5031434;28;20729;-46
2022/03/04 07:52:39;;;;;;;3.73;3.30;;;15.90;46.20;16.50;101291.00;;;;5029534;28;20178;-45
2022/03/04 07:55:06;;;;;;;3.63;3.33;;;15.90;46.20;16.50;101286.00;;;;5018418;28;20207;-45
2022/03/04 07:57:32;;;;;;;13.23;4.20;;;15.90;46.20;16.50;101291.00;;;;5032507;28;20560;-46
2022/03/04 07:59:58;;;;;;;12.57;3.90;;;15.90;46.90;16.50;101286.00;;;;5029898;28;20188;-43
2022/03/04 08:02:23;;;;;;;6.80;3.73;;;15.90;46.90;16.50;101284.00;;;;5025336;28;20245;-44
2022/03/04 08:04:50;;;;;;;4.87;3.60;;;15.90;46.80;16.50;101301.00;;;;5032520;28;20284;-46
2022/03/04 08:07:17;;;;;;;5.97;3.70;;;16.00;46.70;16.50;101298.00;;;;5030756;28;20174;-45
2022/03/04 08:09:42;;;;;;;4.63;3.60;;;16.00;46.50;16.50;101297.00;;;;5028262;28;20171;-45
2022/03/04 08:12:09;;;;;;;3.87;3.53;;;16.00;46.50;16.50;101297.00;;;;5024053;28;20580;-45
2022/03/04 08:14:35;;;;;;;5.90;3.27;;;16.00;46.40;16.60;101306.00;;;;5011014;28;20262;-45
2022/03/04 08:17:00;;;;;;;4.87;3.60;;;16.00;46.30;16.60;101304.00;;;;5012488;28;20596;-45
2022/03/04 08:19:26;;;;;;;6.33;3.47;;;16.00;46.30;16.60;101303.00;;;;5012587;28;20180;-45
2022/03/04 08:21:52;;;;;;;3.97;3.10;;;16.00;46.20;16.60;101294.00;;;;5011204;28;20208;-45
2022/03/04 08:24:18;;;;;;;3.93;3.53;;;16.10;46.30;16.60;101293.00;;;;5011921;28;20833;-45
2022/03/04 08:26:43;;;;;;;5.53;4.00;;;16.10;46.30;16.60;101294.00;;;;5011984;28;20167;-44
2022/03/04 08:29:10;;;;;;;4.50;3.40;;;16.00;46.20;16.60;101291.00;;;;5028702;28;20167;-44
2022/03/04 08:31:36;;;;;;;4.30;3.40;;;16.10;46.20;16.40;101300.00;;;;5033504;28;20226;-45
2022/03/04 08:34:01;;;;;;;3.80;3.50;;;16.10;46.20;16.60;101306.00;;;;5032316;28;20694;-45
2022/03/04 08:36:27;;;;;;;4.40;3.70;;;16.20;46.20;16.70;101302.00;;;;5031946;28;20223;-44
2022/03/04 08:38:53;;;;;;;4.00;3.60;;;16.20;46.20;16.70;101306.00;;;;5030977;28;20511;-46
2022/03/04 08:41:18;;;;;;;3.70;3.40;;;16.20;46.10;16.70;101300.00;;;;5031322;28;20183;-46
2022/03/04 08:43:46;;;;;;;4.20;3.80;;;16.20;46.20;16.70;101304.00;;;;5031677;28;20202;-45
2022/03/04 08:46:13;;;;;;;3.67;3.37;;;16.20;46.10;16.70;101306.00;;;;5031642;28;20171;-44
2022/03/04 08:48:40;;;;;;;4.30;3.30;;;16.20;46.20;16.70;101298.00;;;;5031428;28;20175;-45
2022/03/04 08:51:05;;;;;;;9.57;3.70;;;16.20;46.20;16.70;101299.00;;;;5031142;28;20215;-43
2022/03/04 08:53:31;;;;;;;10.63;4.00;;;16.20;47.60;16.80;101304.00;;;;5031939;28;20187;-45
2022/03/04 08:55:57;;;;;;;8.50;3.80;;;16.30;47.20;16.80;101304.00;;;;5031310;28;20171;-45
2022/03/04 08:58:23;;;;;;;8.63;3.80;;;16.30;47.20;16.80;101304.00;;;;5031258;28;20178;-46
2022/03/04 09:00:48;;;;;;;4.83;3.60;;;16.30;47.20;16.80;101294.00;;;;5031388;28;20198;-44
2022/03/04 09:03:15;;;;;;;5.43;3.60;;;16.30;47.10;16.80;101297.00;;;;5031473;28;20211;-44
2022/03/04 09:05:40;;;;;;;5.00;3.30;;;16.30;46.80;16.80;101303.00;;;;5031299;28;20237;-46
2022/03/04 09:08:06;;;;;;;4.50;3.43;;;16.40;46.80;16.90;101310.00;;;;5031507;28;20958;-45
2022/03/04 09:10:32;;;;;;;4.73;3.63;;;16.40;46.80;16.90;101297.00;;;;5030897;28;20194;-44
2022/03/04 09:12:57;;;;;;;6.90;3.50;;;16.40;46.70;16.90;101308.00;;;;5029656;28;20262;-45
2022/03/04 09:15:23;;;;;;;4.50;3.60;;;16.40;46.70;16.90;101307.00;;;;5030419;28;20182;-44
2022/03/04 09:17:49;;;;;;;3.67;3.37;;;16.50;46.70;16.90;101302.00;;;;5030828;28;20186;-46
2022/03/04 09:20:16;;;;;;;3.50;3.20;;;16.50;46.70;16.90;101303.00;;;;5030307;28;20178;-46
2022/03/04 09:22:42;;;;;;;4.10;3.40;;;16.50;46.60;16.90;101300.00;;;;5030178;28;20195;-44
2022/03/04 09:25:08;;;;;;;3.93;3.30;;;16.50;46.60;17.00;101303.00;;;;5030091;28;20167;-44
2022/03/04 09:27:34;;;;;;;3.60;3.30;;;16.50;46.60;17.00;101288.00;;;;5028448;28;20603;-45
2022/03/04 09:29:59;;;;;;;4.97;3.90;;;16.50;46.50;17.00;101300.00;;;;5029797;28;20186;-45
2022/03/04 09:32:25;;;;;;;3.80;3.50;;;16.50;46.60;17.00;101289.00;;;;5030066;28;20179;-44
2022/03/04 09:34:51;;;;;;;3.73;3.30;;;16.50;46.50;17.00;101287.00;;;;5028640;28;20222;-44
2022/03/04 09:37:17;;;;;;;5.77;3.33;;;16.60;46.50;17.00;101290.00;;;;5027815;28;20179;-45
2022/03/04 09:39:43;;;;;;;3.93;3.40;;;16.60;46.50;17.10;101288.00;;;;5028783;28;21367;-45
2022/03/04 09:42:08;;;;;;;4.27;3.40;;;16.60;46.50;17.10;101283.00;;;;5029809;28;20203;-46
2022/03/04 09:44:34;;;;;;;3.70;3.40;;;16.60;46.70;17.10;101286.00;;;;5030885;28;20672;-45
2022/03/04 09:47:01;;;;;;;3.80;3.50;;;16.70;46.70;17.10;101292.00;;;;5030248;28;20167;-45
2022/03/04 09:49:31;;;;;;;4.30;3.30;;;16.70;46.80;17.10;101289.00;;;;5030436;28;20175;-45
2022/03/04 09:51:57;;;;;;;5.47;3.77;;;16.70;46.80;17.20;101296.00;;;;5029421;28;20203;-45
2022/03/04 09:54:26;;;;;;;5.80;3.30;;;16.70;46.80;17.20;101301.00;;;;5030018;28;20210;-45
2022/03/04 09:56:52;;;;;;;4.33;3.57;;;16.70;46.90;17.20;101293.00;;;;4999519;28;20190;-45
2022/03/04 09:59:18;;;;;;;5.37;3.60;;;16.80;46.90;17.20;101304.00;;;;5012467;28;20195;-45
2022/03/04 10:01:44;;;;;;;3.90;3.60;;;16.80;46.90;17.20;101299.00;;;;5030588;28;20205;-45
2022/03/04 10:04:11;;;;;;;3.97;3.63;;;16.80;46.80;17.30;101306.00;;;;5030743;28;20290;-45
2022/03/04 10:06:38;;;;;;;5.43;3.77;;;16.80;46.90;17.30;101302.00;;;;5032374;28;20175;-45
2022/03/04 10:09:04;;;;;;;5.57;3.80;;;16.90;46.80;17.30;101302.00;;;;5036201;28;20186;-46
2022/03/04 10:11:34;;;;;;;5.10;4.20;;;16.90;46.80;17.40;101303.00;;;;5037355;28;20565;-45
2022/03/04 10:14:02;;;;;;;5.57;3.80;;;16.90;46.80;17.40;101304.00;;;;5034736;28;20194;-46
2022/03/04 10:16:37;;;;;;;3.87;3.57;;;16.90;46.70;17.40;101299.00;;;;5035030;28;20171;-47
2022/03/04 10:19:16;;;;;;;3.90;3.40;;;17.00;46.70;17.40;101297.00;;;;5034808;28;20182;-46
2022/03/04 10:22:05;;;;;;;5.20;3.83;;;17.00;46.80;17.50;101298.00;;;;5034753;28;20226;-45
2022/03/04 10:24:36;;;;;;;4.13;3.63;;;17.00;46.70;17.50;101294.00;;;;5036650;28;20237;-47
2022/03/04 10:27:06;;;;;;;4.53;3.40;;;17.00;46.70;17.50;101296.00;;;;5034687;28;20250;-46
2022/03/04 10:29:34;;;;;;;4.03;3.67;;;17.10;46.70;17.50;101302.00;;;;5034826;28;20429;-47
2022/03/04 10:32:13;;;;;;;3.60;3.30;;;17.10;46.70;17.50;101301.00;;;;5039160;28;20186;-46
2022/03/04 10:35:16;;;;;;;4.23;3.83;;;17.10;46.70;17.60;101291.00;;;;5040362;28;20198;-47
2022/03/04 10:37:48;;;;;;;6.33;3.83;;;17.10;46.60;17.60;101262.00;;;;5029926;28;20273;-45
2022/03/04 10:40:18;;;;;;;3.77;3.37;;;17.20;46.70;17.60;101279.00;;;;5034854;28;20719;-47
2022/03/04 10:43:05;;;;;;;3.80;3.50;;;17.20;46.70;17.60;101279.00;;;;5039164;28;20202;-46
2022/03/04 10:45:35;;;;;;;4.23;3.83;;;17.20;46.70;17.60;101278.00;;;;5036737;28;20219;-46